createdAt,value
2022-11-18T09:45:41.332Z,3.16
2022-11-18T09:46:41.299Z,3.19
2022-11-18T09:47:41.297Z,3.17
2022-11-18T09:48:41.297Z,3.13
2022-11-18T09:49:41.282Z,3.12
2022-11-18T09:50:49.586Z,3.07
2022-11-18T09:51:42.248Z,3.04
2022-11-18T09:52:41.247Z,3.01
2022-11-18T09:53:41.256Z,2.99
2022-11-18T09:54:41.236Z,2.99
2022-11-18T09:55:41.197Z,2.99
2022-11-18T09:56:41.255Z,3.02
2022-11-18T09:57:41.168Z,3.02
2022-11-18T09:58:41.185Z,3.02
2022-11-18T09:59:41.138Z,3.02
2022-11-18T10:00:41.146Z,3.02
2022-11-18T10:01:41.218Z,3.02
2022-11-18T10:02:41.098Z,3.01
2022-11-18T10:03:56.324Z,2.98
2022-11-18T10:04:41.076Z,2.98
2022-11-18T10:05:41.052Z,2.99
2022-11-18T10:06:41.047Z,2.95
2022-11-18T10:07:41.073Z,2.94
2022-11-18T10:08:41.034Z,2.94
2022-11-18T10:09:41.014Z,2.90
2022-11-18T10:10:41.000Z,2.92
2022-11-18T10:11:43.355Z,2.90
2022-11-18T10:12:40.970Z,2.89
2022-11-18T10:13:40.978Z,2.86
2022-11-18T10:14:40.955Z,2.84
2022-11-18T10:15:40.928Z,2.81
2022-11-18T10:16:40.940Z,2.80
2022-11-18T10:17:40.899Z,2.77
2022-11-18T10:19:41.880Z,2.74
2022-11-18T10:20:40.869Z,2.73
2022-11-18T10:21:40.878Z,2.73
2022-11-18T10:22:40.849Z,2.69
2022-11-18T10:23:40.839Z,2.68
2022-11-18T10:24:41.087Z,2.66
2022-11-18T10:25:40.804Z,2.66
2022-11-18T10:26:40.805Z,2.66
2022-11-18T10:27:40.779Z,2.65
2022-11-18T10:28:40.767Z,2.65
2022-11-18T10:29:40.745Z,2.63
2022-11-18T10:30:40.735Z,2.65
2022-11-18T10:31:40.726Z,2.66
2022-11-18T10:32:40.735Z,2.63
2022-11-18T10:33:40.708Z,2.61
2022-11-18T10:34:40.685Z,2.59
2022-11-18T10:35:40.694Z,2.58
2022-11-18T10:36:40.680Z,2.51
2022-11-18T10:38:06.682Z,2.48
2022-11-18T10:38:46.948Z,2.45
2022-11-18T10:39:41.636Z,2.44
2022-11-18T10:40:40.661Z,2.44
2022-11-18T10:41:40.594Z,2.44
2022-11-18T10:42:40.600Z,2.44
2022-11-18T10:43:40.905Z,2.43
2022-11-18T10:44:40.570Z,2.40
2022-11-18T10:45:40.533Z,2.37
2022-11-18T10:46:40.522Z,2.37
2022-11-18T10:47:40.519Z,2.36
2022-11-18T10:48:40.512Z,2.36
2022-11-18T10:49:40.490Z,2.33
2022-11-18T10:50:40.468Z,2.32
2022-11-18T10:51:40.453Z,2.27
2022-11-18T10:52:40.453Z,2.25
2022-11-18T10:53:40.450Z,2.25
2022-11-18T10:54:40.421Z,2.26
2022-11-18T10:55:40.424Z,2.25
2022-11-18T10:56:40.398Z,2.26
2022-11-18T10:57:40.390Z,2.25
2022-11-18T10:58:40.387Z,2.25
2022-11-18T10:59:40.362Z,2.25
2022-11-18T11:00:40.367Z,2.25
2022-11-18T11:01:40.401Z,2.23
2022-11-18T11:02:40.322Z,2.23
2022-11-18T11:03:40.328Z,2.22
2022-11-18T11:04:40.293Z,2.20
2022-11-18T11:05:40.289Z,2.19
2022-11-18T11:06:40.265Z,2.18
2022-11-18T11:07:40.335Z,2.15
2022-11-18T11:08:40.259Z,2.15
2022-11-18T11:09:40.238Z,2.15
2022-11-18T11:10:40.198Z,2.14
2022-11-18T11:11:40.263Z,2.14
2022-11-18T11:12:40.187Z,2.12
2022-11-18T11:13:40.190Z,2.12
2022-11-18T11:14:40.158Z,2.11
2022-11-18T11:15:40.150Z,2.11
2022-11-18T11:16:40.137Z,2.11
2022-11-18T11:17:40.144Z,2.09
2022-11-18T11:18:40.125Z,2.09
2022-11-18T11:19:40.104Z,2.11
2022-11-18T11:20:40.067Z,2.09
2022-11-18T11:21:40.075Z,2.11
2022-11-18T11:22:40.056Z,2.08
2022-11-18T11:23:40.058Z,2.07
2022-11-18T11:24:40.051Z,2.07
2022-11-18T11:28:40.986Z,2.04
2022-11-18T11:29:39.977Z,2.02
2022-11-18T11:30:43.604Z,1.95
2022-11-18T11:31:40.943Z,1.93
2022-11-18T11:32:39.943Z,1.92
2022-11-18T11:33:39.941Z,1.90
2022-11-18T11:34:39.892Z,1.89
2022-11-18T11:35:39.883Z,1.92
2022-11-18T11:36:39.894Z,1.93
2022-11-18T11:37:39.904Z,1.92
2022-11-18T11:38:39.866Z,1.92
2022-11-18T11:39:39.853Z,1.90
2022-11-18T11:40:39.820Z,1.92
2022-11-18T11:41:39.812Z,1.92
2022-11-18T11:42:39.801Z,1.90
2022-11-18T11:43:39.811Z,1.90
2022-11-18T11:44:39.780Z,1.88
2022-11-18T11:45:39.764Z,1.85
2022-11-18T11:46:39.745Z,1.85
2022-11-18T11:47:39.729Z,1.86
2022-11-18T11:48:39.731Z,1.83
2022-11-18T11:49:39.716Z,1.86
2022-11-18T11:50:58.474Z,1.83
2022-11-18T11:51:40.682Z,1.86
2022-11-18T11:52:39.650Z,1.86
2022-11-18T11:53:39.658Z,1.85
2022-11-18T11:54:39.642Z,1.83
2022-11-18T11:55:39.630Z,1.82
2022-11-18T11:56:39.613Z,1.83
2022-11-18T11:57:39.592Z,1.83
2022-11-18T11:58:39.591Z,1.82
2022-11-18T11:59:39.582Z,1.82
2022-11-18T12:00:39.558Z,1.82
2022-11-18T12:01:39.538Z,1.85
2022-11-18T12:02:39.554Z,1.85
2022-11-18T12:03:39.538Z,1.83
2022-11-18T12:04:39.520Z,1.85
2022-11-18T12:05:39.501Z,1.85
2022-11-18T12:06:39.494Z,1.83
2022-11-18T12:07:39.492Z,1.83
2022-11-18T12:08:39.477Z,1.82
2022-11-18T12:09:39.437Z,1.81
2022-11-18T12:10:39.449Z,1.81
2022-11-18T12:11:39.423Z,1.81
2022-11-18T12:12:39.417Z,1.81
2022-11-18T12:13:39.398Z,1.81
2022-11-18T12:14:40.082Z,1.77
2022-11-18T12:15:39.401Z,1.77
2022-11-18T12:16:39.347Z,1.79
2022-11-18T12:17:39.348Z,1.79
2022-11-18T12:18:39.333Z,1.79
2022-11-18T12:19:39.307Z,1.81
2022-11-18T12:20:39.312Z,1.79
2022-11-18T12:21:39.287Z,1.82
2022-11-18T12:22:39.272Z,1.81
2022-11-18T12:23:39.274Z,1.81
2022-11-18T12:24:39.247Z,1.81
2022-11-18T12:25:39.237Z,1.82
2022-11-18T12:26:39.227Z,1.82
2022-11-18T12:27:39.205Z,1.81
2022-11-18T12:28:39.203Z,1.77
2022-11-18T12:29:39.190Z,1.77
2022-11-18T12:30:39.181Z,1.74
2022-11-18T12:31:39.153Z,1.74
2022-11-18T12:32:39.150Z,1.74
2022-11-18T12:33:39.159Z,1.72
2022-11-18T12:34:39.113Z,1.71
2022-11-18T12:35:39.115Z,1.70
2022-11-18T12:36:39.091Z,1.65
2022-11-18T12:37:39.085Z,1.65
2022-11-18T12:38:39.084Z,1.67
2022-11-18T12:39:39.050Z,1.65
2022-11-18T12:40:39.056Z,1.68
2022-11-18T12:41:39.024Z,1.68
2022-11-18T12:42:39.021Z,1.70
2022-11-18T12:43:39.043Z,1.68
2022-11-18T12:44:38.982Z,1.68
2022-11-18T12:45:38.995Z,1.68
2022-11-18T12:46:44.278Z,1.71
2022-11-18T12:47:39.958Z,1.71
2022-11-18T12:48:38.950Z,1.72
2022-11-18T12:49:38.927Z,1.71
2022-11-18T12:50:38.917Z,1.70
2022-11-18T12:51:38.905Z,1.72
2022-11-18T12:52:38.889Z,1.71
2022-11-18T12:53:38.890Z,1.71
2022-11-18T12:54:38.869Z,1.74
2022-11-18T12:55:38.858Z,1.75
2022-11-18T12:56:38.837Z,1.75
2022-11-18T12:57:38.838Z,1.75
2022-11-18T12:58:38.836Z,1.74
2022-11-18T12:59:38.806Z,1.72
2022-11-18T13:00:38.822Z,1.74
2022-11-18T13:01:38.778Z,1.75
2022-11-18T13:02:38.757Z,1.71
2022-11-18T13:03:38.757Z,1.67
2022-11-18T13:04:44.043Z,1.68
2022-11-18T13:05:39.737Z,1.67
2022-11-18T13:06:38.706Z,1.65
2022-11-18T13:07:38.773Z,1.61
2022-11-18T13:08:38.686Z,1.60
2022-11-18T13:09:38.714Z,1.56
2022-11-18T13:10:38.657Z,1.53
2022-11-18T13:11:38.706Z,1.53
2022-11-18T13:12:38.629Z,1.53
2022-11-18T13:13:38.624Z,1.56
2022-11-18T13:14:38.605Z,1.56
2022-11-18T13:15:38.613Z,1.54
2022-11-18T13:16:38.691Z,1.56
2022-11-18T13:17:38.565Z,1.53
2022-11-18T13:18:38.565Z,1.49
2022-11-18T13:19:38.543Z,1.49
2022-11-18T13:20:38.520Z,1.46
2022-11-18T13:21:38.504Z,1.46
2022-11-18T13:22:38.495Z,1.46
2022-11-18T13:23:38.515Z,1.47
2022-11-18T13:24:38.471Z,1.46
2022-11-18T13:25:38.475Z,1.46
2022-11-18T13:26:38.452Z,1.47
2022-11-18T13:27:38.449Z,1.49
2022-11-18T13:28:38.422Z,1.47
2022-11-18T13:29:38.402Z,1.47
2022-11-18T13:30:38.409Z,1.43
2022-11-18T13:31:38.403Z,1.42
2022-11-18T13:32:38.358Z,1.43
2022-11-18T13:33:38.371Z,1.42
2022-11-18T13:34:38.332Z,1.42
2022-11-18T13:35:38.383Z,1.43
2022-11-18T13:36:38.314Z,1.42
2022-11-18T13:37:38.300Z,1.39
2022-11-18T13:38:38.304Z,1.34
2022-11-18T13:39:38.272Z,1.32
2022-11-18T13:40:38.269Z,1.29
2022-11-18T13:41:38.278Z,1.29
2022-11-18T13:42:38.231Z,1.28
2022-11-18T13:43:38.240Z,1.28
2022-11-18T13:44:38.208Z,1.28
2022-11-18T13:45:38.208Z,1.24
2022-11-18T13:46:38.180Z,1.20
2022-11-18T13:47:38.182Z,1.21
2022-11-18T13:48:38.164Z,1.21
2022-11-18T13:49:38.151Z,1.21
2022-11-18T13:50:38.181Z,1.21
2022-11-18T13:51:38.128Z,1.20
2022-11-18T13:52:38.097Z,1.21
2022-11-18T13:53:38.127Z,1.21
2022-11-18T13:54:38.078Z,1.21
2022-11-18T13:55:38.063Z,1.20
2022-11-18T13:56:38.055Z,1.21
2022-11-18T13:57:38.113Z,1.21
2022-11-18T13:59:02.480Z,1.20
2022-11-18T13:59:39.031Z,1.21
2022-11-18T14:00:38.082Z,1.18
2022-11-18T14:01:38.029Z,1.18
2022-11-18T14:02:37.985Z,1.17
2022-11-18T14:03:38.005Z,1.18
2022-11-18T14:04:37.945Z,1.18
2022-11-18T14:05:37.981Z,1.18
2022-11-18T14:06:37.933Z,1.18
2022-11-18T14:07:37.956Z,1.18
2022-11-18T14:08:37.915Z,1.18
2022-11-18T14:09:37.885Z,1.16
2022-11-18T14:10:39.558Z,1.13
2022-11-18T14:11:37.862Z,1.13
2022-11-18T14:12:37.855Z,1.10
2022-11-18T14:13:37.841Z,1.08
2022-11-18T14:14:37.812Z,1.10
2022-11-18T14:15:43.216Z,1.08
2022-11-18T14:16:38.792Z,1.08
2022-11-18T14:17:37.822Z,1.07
2022-11-18T14:18:37.772Z,1.06
2022-11-18T14:19:37.757Z,1.06
2022-11-18T14:20:37.749Z,1.06
2022-11-18T14:21:37.743Z,1.07
2022-11-18T14:22:37.716Z,1.06
2022-11-18T14:23:37.721Z,1.06
2022-11-18T14:24:37.710Z,1.02
2022-11-18T14:25:37.682Z,1.02
2022-11-18T14:26:37.673Z,1.00
2022-11-18T14:27:37.666Z,0.98
2022-11-18T14:28:37.649Z,0.96
2022-11-18T14:29:37.627Z,0.95
2022-11-18T14:30:37.630Z,0.95
2022-11-18T14:31:37.604Z,0.92
2022-11-18T14:32:37.589Z,0.92
2022-11-18T14:33:37.607Z,0.88
2022-11-18T14:34:37.556Z,0.88
2022-11-18T14:35:37.548Z,0.82
2022-11-18T14:36:40.742Z,0.75
2022-11-18T14:37:37.530Z,0.71
2022-11-18T14:38:47.618Z,0.71
2022-11-18T14:39:38.697Z,0.71
2022-11-18T14:40:37.485Z,0.70
2022-11-18T14:41:42.482Z,0.64
2022-11-18T14:42:38.462Z,0.63
2022-11-18T14:43:37.466Z,0.62
2022-11-18T14:44:37.434Z,0.62
2022-11-18T14:45:37.413Z,0.57
2022-11-18T14:46:37.426Z,0.59
2022-11-18T14:47:37.383Z,0.59
2022-11-18T14:48:37.394Z,0.60
2022-11-18T14:49:37.398Z,0.60
2022-11-18T14:50:37.361Z,0.60
2022-11-18T14:51:37.341Z,0.59
2022-11-18T14:52:37.326Z,0.57
2022-11-18T14:53:37.335Z,0.53
2022-11-18T14:54:37.311Z,0.56
2022-11-18T14:55:37.293Z,0.57
2022-11-18T14:56:37.311Z,0.53
2022-11-18T14:57:37.264Z,0.52
2022-11-18T14:58:37.274Z,0.49
2022-11-18T14:59:37.266Z,0.49
2022-11-18T15:00:37.266Z,0.48
2022-11-18T15:01:37.292Z,0.45
2022-11-18T15:02:37.283Z,0.43
2022-11-18T15:03:37.203Z,0.41
2022-11-18T15:04:37.178Z,0.40
2022-11-18T15:05:37.160Z,0.38
2022-11-18T15:06:37.163Z,0.35
2022-11-18T15:07:37.162Z,0.33
2022-11-18T15:08:37.143Z,0.33
2022-11-18T15:09:37.109Z,0.31
2022-11-18T15:10:37.117Z,0.28
2022-11-18T15:11:37.080Z,0.30
2022-11-18T15:12:37.071Z,0.26
2022-11-18T15:13:37.073Z,0.26
2022-11-18T15:14:37.039Z,0.28
2022-11-18T15:15:37.040Z,0.26
2022-11-18T15:16:37.050Z,0.25
2022-11-18T15:17:37.007Z,0.22
2022-11-18T15:18:37.015Z,0.22
2022-11-18T15:19:36.976Z,0.20
2022-11-18T15:20:36.980Z,0.22
2022-11-18T15:21:36.947Z,0.20
2022-11-18T15:22:36.946Z,0.19
2022-11-18T15:23:36.944Z,0.19
2022-11-18T15:24:36.933Z,0.17
2022-11-18T15:25:36.906Z,0.19
2022-11-18T15:26:36.934Z,0.20
2022-11-18T15:27:36.865Z,0.16
2022-11-18T15:29:47.717Z,0.15
2022-11-18T15:30:47.686Z,0.13
2022-11-18T15:31:47.676Z,0.15
2022-11-18T15:32:47.665Z,0.16
2022-11-18T15:33:47.667Z,0.16
2022-11-18T15:34:47.642Z,0.15
2022-11-18T15:35:47.635Z,0.19
2022-11-18T15:36:47.618Z,0.19
2022-11-18T15:37:47.603Z,0.17
2022-11-18T15:38:47.646Z,0.17
2022-11-18T15:39:47.574Z,0.17
2022-11-18T15:40:47.562Z,0.17
2022-11-18T15:41:48.629Z,0.19
2022-11-18T15:42:51.998Z,0.17
2022-11-18T15:43:47.534Z,0.15
2022-11-18T15:44:47.521Z,0.16
2022-11-18T15:45:47.491Z,0.17
2022-11-18T15:46:47.494Z,0.17
2022-11-18T15:47:47.473Z,0.17
2022-11-18T15:48:47.520Z,0.16
2022-11-18T15:49:47.451Z,0.15
2022-11-18T15:50:47.601Z,0.15
2022-11-18T15:51:47.419Z,0.13
2022-11-18T15:52:47.411Z,0.12
2022-11-18T15:53:47.409Z,0.07
2022-11-18T15:54:47.391Z,0.05
2022-11-18T15:55:47.371Z,0.01
2022-11-18T15:56:47.367Z,-0.03
2022-11-18T15:57:47.352Z,-0.08
2022-11-18T15:58:47.343Z,-0.08
2022-11-18T15:59:47.318Z,-0.09
2022-11-18T16:00:47.369Z,-0.13
2022-11-18T16:01:47.292Z,-0.12
2022-11-18T16:02:47.290Z,-0.14
2022-11-18T16:03:47.299Z,-0.13
2022-11-18T16:04:47.260Z,-0.12
2022-11-18T16:05:47.240Z,-0.08
2022-11-18T16:06:47.236Z,-0.06
2022-11-18T16:07:51.393Z,-0.05
2022-11-18T16:08:48.248Z,-0.02
2022-11-18T16:09:47.185Z,-0.01
2022-11-18T16:10:47.186Z,-0.01
2022-11-18T16:11:47.171Z,-0.03
2022-11-18T16:12:47.175Z,-0.03
2022-11-18T16:13:47.149Z,-0.05
2022-11-18T16:14:47.136Z,-0.08
2022-11-18T16:15:47.117Z,-0.08
2022-11-18T16:16:47.116Z,-0.08
2022-11-18T16:17:47.088Z,-0.08
2022-11-18T16:18:47.094Z,-0.05
2022-11-18T16:19:47.063Z,-0.03
2022-11-18T16:20:47.054Z,-0.06
2022-11-18T16:21:47.122Z,-0.06
2022-11-18T16:22:47.038Z,-0.03
2022-11-18T16:23:47.022Z,-0.06
2022-11-18T16:24:48.603Z,-0.05
2022-11-18T16:25:46.986Z,-0.02
2022-11-18T16:26:46.981Z,-0.03
2022-11-18T16:27:46.961Z,-0.03
2022-11-18T16:28:46.976Z,-0.01
2022-11-18T16:29:46.932Z,-0.01
2022-11-18T16:30:46.942Z,-0.01
2022-11-18T16:31:46.909Z,0.01
2022-11-18T16:32:46.899Z,-0.01
2022-11-18T16:33:46.905Z,-0.01
2022-11-18T16:34:46.879Z,-0.02
2022-11-18T16:35:46.863Z,-0.01
2022-11-18T16:36:46.850Z,-0.01
2022-11-18T16:37:46.830Z,-0.02
2022-11-18T16:38:46.896Z,-0.03
2022-11-18T16:39:46.809Z,-0.03
2022-11-18T16:40:46.799Z,-0.02
2022-11-18T16:41:46.787Z,-0.02
2022-11-18T16:42:46.779Z,-0.02
2022-11-18T16:43:46.766Z,0.01
2022-11-18T16:44:46.749Z,0.01
2022-11-18T16:45:46.727Z,-0.02
2022-11-18T16:46:46.728Z,-0.02
2022-11-18T16:47:46.705Z,-0.03
2022-11-18T16:48:46.731Z,-0.03
2022-11-18T16:49:46.680Z,-0.02
2022-11-18T16:50:46.669Z,0.01
2022-11-18T16:51:46.727Z,0.02
2022-11-18T16:52:46.650Z,0.02
2022-11-18T16:53:46.656Z,0.01
2022-11-18T16:54:46.739Z,-0.01
2022-11-18T16:55:46.615Z,-0.03
2022-11-18T16:56:46.597Z,-0.02
2022-11-18T16:57:46.573Z,-0.01
2022-11-18T16:58:46.573Z,-0.01
2022-11-18T16:59:46.549Z,-0.01
2022-11-18T17:01:16.811Z,-0.01
2022-11-18T17:01:47.571Z,-0.01
2022-11-18T17:02:46.564Z,0.02
2022-11-18T17:03:46.549Z,0.01
2022-11-18T17:04:46.498Z,0.01
2022-11-18T17:05:46.511Z,0.01
2022-11-18T17:06:46.480Z,0.02
2022-11-18T17:07:46.530Z,0.02
2022-11-18T17:08:46.485Z,-0.01
2022-11-18T17:09:46.442Z,-0.01
2022-11-18T17:10:46.419Z,-0.01
2022-11-18T17:11:46.407Z,-0.02
2022-11-18T17:12:46.417Z,-0.01
2022-11-18T17:13:46.380Z,-0.02
2022-11-18T17:14:46.371Z,-0.02
2022-11-18T17:15:46.351Z,-0.03
2022-11-18T17:16:46.347Z,-0.05
2022-11-18T17:17:46.329Z,-0.05
2022-11-18T17:18:46.321Z,-0.02
2022-11-18T17:19:46.299Z,-0.03
2022-11-18T17:20:46.314Z,-0.03
2022-11-18T17:21:46.269Z,-0.03
2022-11-18T17:22:46.259Z,-0.03
2022-11-18T17:23:46.337Z,-0.02
2022-11-18T17:24:46.235Z,-0.05
2022-11-18T17:25:46.227Z,-0.06
2022-11-18T17:26:46.210Z,-0.08
2022-11-18T17:27:46.207Z,-0.06
2022-11-18T17:28:46.256Z,-0.03
2022-11-18T17:29:46.167Z,-0.03
2022-11-18T17:30:50.032Z,-0.02
2022-11-18T17:31:46.148Z,-0.03
2022-11-18T17:32:46.126Z,-0.03
2022-11-18T17:33:46.135Z,-0.03
2022-11-18T17:34:46.109Z,-0.03
2022-11-18T17:35:46.089Z,-0.03
2022-11-18T17:36:46.104Z,-0.03
2022-11-18T17:37:46.068Z,-0.03
2022-11-18T17:38:46.082Z,-0.03
2022-11-18T17:39:46.054Z,-0.02
2022-11-18T17:40:46.031Z,-0.02
2022-11-18T17:41:46.026Z,-0.02
2022-11-18T17:42:46.016Z,-0.03
2022-11-18T17:43:46.025Z,-0.05
2022-11-18T17:44:46.004Z,-0.05
2022-11-18T17:45:45.972Z,-0.02
2022-11-18T17:46:45.963Z,-0.03
2022-11-18T17:47:46.051Z,-0.05
2022-11-18T17:48:45.969Z,-0.03
2022-11-18T17:49:45.928Z,-0.03
2022-11-18T17:50:45.931Z,-0.02
2022-11-18T17:51:45.883Z,-0.03
2022-11-18T17:52:45.888Z,-0.02
2022-11-18T17:53:45.872Z,-0.03
2022-11-18T17:54:45.852Z,-0.03
2022-11-18T17:55:45.838Z,-0.06
2022-11-18T17:56:45.831Z,-0.05
2022-11-18T17:57:45.814Z,-0.06
2022-11-18T17:58:45.822Z,-0.08
2022-11-18T17:59:45.788Z,-0.09
2022-11-18T18:00:45.788Z,-0.06
2022-11-18T18:01:46.027Z,-0.06
2022-11-18T18:02:45.765Z,-0.06
2022-11-18T18:03:45.773Z,-0.05
2022-11-18T18:04:45.726Z,-0.03
2022-11-18T18:05:45.712Z,-0.03
2022-11-18T18:06:45.716Z,-0.05
2022-11-18T18:07:45.781Z,-0.05
2022-11-18T18:08:45.689Z,-0.05
2022-11-18T18:09:45.658Z,-0.05
2022-11-18T18:10:45.666Z,-0.05
2022-11-18T18:11:45.663Z,-0.05
2022-11-18T18:12:45.619Z,-0.03
2022-11-18T18:13:45.631Z,-0.02
2022-11-18T18:14:45.602Z,-0.05
2022-11-18T18:15:45.583Z,-0.05
2022-11-18T18:16:45.572Z,-0.05
2022-11-18T18:17:45.563Z,-0.05
2022-11-18T18:18:45.572Z,-0.03
2022-11-18T18:19:45.532Z,-0.02
2022-11-18T18:20:45.527Z,-0.03
2022-11-18T18:21:45.548Z,-0.03
2022-11-18T18:22:45.505Z,-0.05
2022-11-18T18:23:45.500Z,-0.03
2022-11-18T18:24:45.473Z,-0.03
2022-11-18T18:25:45.457Z,-0.02
2022-11-18T18:26:45.459Z,-0.01
2022-11-18T18:27:45.441Z,-0.01
2022-11-18T18:28:45.444Z,-0.01
2022-11-18T18:29:45.399Z,-0.01
2022-11-18T18:30:45.401Z,-0.02
2022-11-18T18:31:45.431Z,-0.02
2022-11-18T18:32:50.935Z,-0.02
2022-11-18T18:33:46.368Z,-0.01
2022-11-18T18:34:45.338Z,-0.02
2022-11-18T18:35:45.329Z,-0.01
2022-11-18T18:36:45.309Z,-0.02
2022-11-18T18:37:45.303Z,-0.03
2022-11-18T18:38:45.309Z,-0.03
2022-11-18T18:39:45.277Z,-0.05
2022-11-18T18:40:45.280Z,-0.08
2022-11-18T18:41:45.285Z,-0.08
2022-11-18T18:42:45.261Z,-0.09
2022-11-18T18:43:45.238Z,-0.09
2022-11-18T18:44:45.244Z,-0.09
2022-11-18T18:45:45.197Z,-0.12
2022-11-18T18:46:45.197Z,-0.12
2022-11-18T18:47:45.174Z,-0.09
2022-11-18T18:48:45.187Z,-0.09
2022-11-18T18:49:45.154Z,-0.12
2022-11-18T18:50:45.144Z,-0.12
2022-11-18T18:51:45.153Z,-0.12
2022-11-18T18:52:45.126Z,-0.12
2022-11-18T18:53:45.136Z,-0.13
2022-11-18T18:54:45.085Z,-0.17
2022-11-18T18:55:45.408Z,-0.19
2022-11-18T18:56:45.082Z,-0.17
2022-11-18T18:57:45.055Z,-0.20
2022-11-18T18:58:45.053Z,-0.17
2022-11-18T18:59:45.024Z,-0.16
2022-11-18T19:00:45.016Z,-0.17
2022-11-18T19:01:45.058Z,-0.14
2022-11-18T19:02:45.005Z,-0.16
2022-11-18T19:03:44.999Z,-0.17
2022-11-18T19:04:44.959Z,-0.17
2022-11-18T19:06:21.860Z,-0.19
2022-11-18T19:07:01.316Z,-0.20
2022-11-18T19:07:46.002Z,-0.21
2022-11-18T19:08:44.930Z,-0.24
2022-11-18T19:09:44.890Z,-0.26
2022-11-18T19:10:44.890Z,-0.26
2022-11-18T19:11:44.925Z,-0.26
2022-11-18T19:12:44.850Z,-0.27
2022-11-18T19:13:44.847Z,-0.30
2022-11-18T19:14:44.835Z,-0.31
2022-11-18T19:15:44.850Z,-0.31
2022-11-18T19:16:44.820Z,-0.32
2022-11-18T19:17:44.873Z,-0.32
2022-11-18T19:18:44.793Z,-0.32
2022-11-18T19:19:44.772Z,-0.32
2022-11-18T19:20:44.751Z,-0.32
2022-11-18T19:21:44.743Z,-0.32
2022-11-18T19:22:44.738Z,-0.31
2022-11-18T19:23:44.731Z,-0.31
2022-11-18T19:24:52.522Z,-0.34
2022-11-18T19:25:45.691Z,-0.34
2022-11-18T19:26:44.674Z,-0.34
2022-11-18T19:27:44.667Z,-0.34
2022-11-18T19:28:44.701Z,-0.37
2022-11-18T19:29:44.656Z,-0.37
2022-11-18T19:30:45.047Z,-0.35
2022-11-18T19:31:44.621Z,-0.37
2022-11-18T19:32:44.626Z,-0.39
2022-11-18T19:33:44.616Z,-0.39
2022-11-18T19:34:44.624Z,-0.39
2022-11-18T19:35:44.581Z,-0.39
2022-11-18T19:36:44.553Z,-0.41
2022-11-18T19:37:44.582Z,-0.39
2022-11-18T19:38:44.577Z,-0.42
2022-11-18T19:39:44.514Z,-0.42
2022-11-18T19:40:44.520Z,-0.42
2022-11-18T19:41:44.484Z,-0.42
2022-11-18T19:42:52.039Z,-0.42
2022-11-18T19:43:44.474Z,-0.42
2022-11-18T19:44:44.436Z,-0.39
2022-11-18T19:45:44.434Z,-0.39
2022-11-18T19:46:44.561Z,-0.41
2022-11-18T19:47:44.415Z,-0.38
2022-11-18T19:48:44.407Z,-0.39
2022-11-18T19:49:44.393Z,-0.38
2022-11-18T19:50:44.373Z,-0.38
2022-11-18T19:51:44.353Z,-0.41
2022-11-18T19:52:44.352Z,-0.45
2022-11-18T19:53:44.355Z,-0.44
2022-11-18T19:54:44.328Z,-0.45
2022-11-18T19:55:44.329Z,-0.47
2022-11-18T19:56:44.298Z,-0.49
2022-11-18T19:57:44.323Z,-0.49
2022-11-18T19:58:44.291Z,-0.52
2022-11-18T19:59:45.821Z,-0.52
2022-11-18T20:00:44.236Z,-0.52
2022-11-18T20:01:44.338Z,-0.50
2022-11-18T20:02:44.217Z,-0.50
2022-11-18T20:03:44.229Z,-0.52
2022-11-18T20:04:44.227Z,-0.49
2022-11-18T20:05:47.335Z,-0.49
2022-11-18T20:06:44.214Z,-0.49
2022-11-18T20:07:44.149Z,-0.49
2022-11-18T20:08:44.191Z,-0.50
2022-11-18T20:09:44.123Z,-0.50
2022-11-18T20:10:44.118Z,-0.50
2022-11-18T20:11:44.107Z,-0.52
2022-11-18T20:12:44.090Z,-0.52
2022-11-18T20:13:44.105Z,-0.55
2022-11-18T20:14:44.067Z,-0.55
2022-11-18T20:15:44.049Z,-0.56
2022-11-18T20:16:44.042Z,-0.55
2022-11-18T20:17:44.044Z,-0.56
2022-11-18T20:18:44.054Z,-0.58
2022-11-18T20:19:44.005Z,-0.56
2022-11-18T20:20:43.978Z,-0.56
2022-11-18T20:21:43.974Z,-0.55
2022-11-18T20:22:44.017Z,-0.55
2022-11-18T20:23:43.979Z,-0.56
2022-11-18T20:24:43.944Z,-0.56
2022-11-18T20:25:43.928Z,-0.56
2022-11-18T20:26:43.945Z,-0.55
2022-11-18T20:27:43.907Z,-0.55
2022-11-18T20:28:43.895Z,-0.56
2022-11-18T20:29:43.881Z,-0.58
2022-11-18T20:30:43.864Z,-0.58
2022-11-18T20:31:43.855Z,-0.58
2022-11-18T20:32:43.847Z,-0.59
2022-11-18T20:33:43.836Z,-0.59
2022-11-18T20:34:43.825Z,-0.58
2022-11-18T20:35:43.816Z,-0.59
2022-11-18T20:36:43.784Z,-0.59
2022-11-18T20:37:43.789Z,-0.59
2022-11-18T20:38:43.773Z,-0.62
2022-11-18T20:39:43.751Z,-0.62
2022-11-18T20:40:43.731Z,-0.60
2022-11-18T20:41:43.723Z,-0.62
2022-11-18T20:42:44.294Z,-0.63
2022-11-18T20:43:43.702Z,-0.63
2022-11-18T20:44:43.714Z,-0.65
2022-11-18T20:45:43.680Z,-0.65
2022-11-18T20:46:43.659Z,-0.63
2022-11-18T20:47:43.648Z,-0.62
2022-11-18T20:48:43.638Z,-0.63
2022-11-18T20:49:43.627Z,-0.62
2022-11-18T20:50:43.617Z,-0.63
2022-11-18T20:51:43.596Z,-0.63
2022-11-18T20:52:43.578Z,-0.63
2022-11-18T20:53:43.611Z,-0.63
2022-11-18T20:54:43.546Z,-0.63
2022-11-18T20:55:43.550Z,-0.65
2022-11-18T20:56:43.596Z,-0.67
2022-11-18T20:57:43.526Z,-0.65
2022-11-18T20:58:43.526Z,-0.65
2022-11-18T20:59:43.495Z,-0.65
2022-11-18T21:00:43.514Z,-0.67
2022-11-18T21:01:43.522Z,-0.70
2022-11-18T21:02:43.447Z,-0.70
2022-11-18T21:03:43.455Z,-0.73
2022-11-18T21:04:43.426Z,-0.73
2022-11-18T21:05:43.421Z,-0.74
2022-11-18T21:06:43.401Z,-0.76
2022-11-18T21:07:43.399Z,-0.76
2022-11-18T21:08:43.393Z,-0.76
2022-11-18T21:09:43.363Z,-0.74
2022-11-18T21:10:43.345Z,-0.76
2022-11-18T21:11:43.365Z,-0.77
2022-11-18T21:12:43.334Z,-0.77
2022-11-18T21:13:43.383Z,-0.78
2022-11-18T21:14:43.319Z,-0.78
2022-11-18T21:15:43.298Z,-0.77
2022-11-18T21:16:43.298Z,-0.80
2022-11-18T21:17:43.289Z,-0.77
2022-11-18T21:18:43.266Z,-0.77
2022-11-18T21:19:47.312Z,-0.77
2022-11-18T21:20:44.223Z,-0.77
2022-11-18T21:21:43.224Z,-0.76
2022-11-18T21:22:43.201Z,-0.76
2022-11-18T21:23:43.210Z,-0.77
2022-11-18T21:24:43.198Z,-0.80
2022-11-18T21:25:43.179Z,-0.80
2022-11-18T21:26:43.139Z,-0.83
2022-11-18T21:27:43.141Z,-0.83
2022-11-18T21:28:43.146Z,-0.81
2022-11-18T21:29:43.119Z,-0.81
2022-11-18T21:30:43.101Z,-0.81
2022-11-18T21:31:43.095Z,-0.81
2022-11-18T21:32:43.076Z,-0.80
2022-11-18T21:33:43.080Z,-0.80
2022-11-18T21:34:43.039Z,-0.81
2022-11-18T21:35:43.049Z,-0.80
2022-11-18T21:36:45.961Z,-0.78
2022-11-18T21:37:44.018Z,-0.81
2022-11-18T21:38:43.038Z,-0.80
2022-11-18T21:39:42.993Z,-0.80
2022-11-18T21:40:42.977Z,-0.83
2022-11-18T21:41:42.955Z,-0.85
2022-11-18T21:42:42.971Z,-0.81
2022-11-18T21:44:04.493Z,-0.83
2022-11-18T21:44:43.917Z,-0.85
2022-11-18T21:45:43.012Z,-0.85
2022-11-18T21:46:42.894Z,-0.89
2022-11-18T21:47:42.895Z,-0.90
2022-11-18T21:48:42.886Z,-0.92
2022-11-18T21:49:42.874Z,-0.90
2022-11-18T21:50:42.871Z,-0.89
2022-11-18T21:51:42.834Z,-0.86
2022-11-18T21:52:42.815Z,-0.86
2022-11-18T21:53:42.822Z,-0.86
2022-11-18T21:54:43.083Z,-0.85
2022-11-18T21:55:42.783Z,-0.85
2022-11-18T21:56:42.793Z,-0.86
2022-11-18T21:57:42.755Z,-0.86
2022-11-18T21:58:42.779Z,-0.89
2022-11-18T21:59:42.746Z,-0.89
2022-11-18T22:00:42.778Z,-0.89
2022-11-18T22:01:42.714Z,-0.89
2022-11-18T22:02:42.691Z,-0.90
2022-11-18T22:03:42.693Z,-0.89
2022-11-18T22:04:42.672Z,-0.90
2022-11-18T22:05:42.695Z,-0.90
2022-11-18T22:06:42.677Z,-0.90
2022-11-18T22:07:42.639Z,-0.92
2022-11-18T22:08:42.654Z,-0.93
2022-11-18T22:09:42.645Z,-0.95
2022-11-18T22:10:42.598Z,-0.93
2022-11-18T22:11:42.582Z,-0.93
2022-11-18T22:12:42.564Z,-0.93
2022-11-18T22:13:42.562Z,-0.92
2022-11-18T22:14:42.582Z,-0.95
2022-11-18T22:15:42.533Z,-0.95
2022-11-18T22:16:42.517Z,-0.96
2022-11-18T22:17:42.504Z,-0.97
2022-11-18T22:18:42.498Z,-0.99
2022-11-18T22:19:42.466Z,-1.00
2022-11-18T22:20:42.463Z,-1.00
2022-11-18T22:21:42.458Z,-0.99
2022-11-18T22:22:42.507Z,-0.99
2022-11-18T22:23:42.449Z,-0.97
2022-11-18T22:24:42.414Z,-0.97
2022-11-18T22:25:42.433Z,-0.96
2022-11-18T22:26:42.410Z,-0.96
2022-11-18T22:27:42.374Z,-0.95
2022-11-18T22:28:42.375Z,-0.93
2022-11-18T22:29:42.355Z,-0.93
2022-11-18T22:30:42.349Z,-0.93
2022-11-18T22:31:42.323Z,-0.96
2022-11-18T22:32:42.339Z,-0.95
2022-11-18T22:33:42.341Z,-0.95
2022-11-18T22:34:42.296Z,-0.96
2022-11-18T22:35:42.301Z,-0.96
2022-11-18T22:36:42.293Z,-0.96
2022-11-18T22:37:42.243Z,-0.96
2022-11-18T22:38:42.278Z,-0.97
2022-11-18T22:39:42.222Z,-0.97
2022-11-18T22:40:42.212Z,-0.96
2022-11-18T22:41:42.205Z,-0.96
2022-11-18T22:42:42.182Z,-0.97
2022-11-18T22:43:42.181Z,-0.95
2022-11-18T22:44:42.165Z,-0.95
2022-11-18T22:45:42.177Z,-0.95
2022-11-18T22:46:42.142Z,-0.95
2022-11-18T22:47:42.134Z,-0.95
2022-11-18T22:48:42.134Z,-0.95
2022-11-18T22:49:42.100Z,-0.96
2022-11-18T22:50:42.088Z,-0.96
2022-11-18T22:51:42.077Z,-0.96
2022-11-18T22:52:42.078Z,-0.96
2022-11-18T22:53:42.047Z,-0.96
2022-11-18T22:54:42.050Z,-0.97